• Join FlightAware (Why Join?)
  • Login
  • US Flag 
10:36AM EDT


 

Airport Tracker/Info


-or-


 

Live Flight TrackerFlight Track Log ✈ USC110 ✈ 21-Jul-2013 ✈ KFTY - KCLT

Flight Track Log - Related Links

Times and Time Zones

All times are in EDT time to prevent confusion due to time zone crossing. See the USC110 flight status page for this flight to view local times or setup timezone preferences in your user account.

Time Position Orientation Groundspeed Altitude Reporting Facility
EDT Latitude Longitude Course Direction KTS MPH feet Rate Location/Type
03:18PM 33.8167 -84.4833 59° Northeast 146 168 2,500  Level Atlanta TRACON
03:19PM 33.8333 -84.4500 59° Northeast 144 166 3,200 1,020 Climbing Atlanta TRACON
03:20PM 33.8500 -84.4167 59° Northeast 105 121 4,500 900 Climbing Atlanta TRACON
03:21PM 33.8500 -84.3667 90° East 137 158 5,000 180 Climbing Atlanta TRACON
03:22PM 33.8500 -84.3167 90° East 171 197 5,000  Level Atlanta TRACON
03:23PM 33.8142 -84.1939 84° East  Level FlightAware Approximate
03:23PM 33.8667 -84.2500 73° East 171 197 5,000  Level Atlanta TRACON
03:24PM 33.8667 -84.2000 90° East 166 191 5,000  Level Atlanta TRACON
03:25PM 33.8667 -84.1500 90° East 172 198 5,000  Level Atlanta TRACON
03:26PM 33.8833 -84.0833 73° East 165 190 5,000 240 Level Atlanta TRACON
03:27PM 33.8833 -84.0333 90° East 161 185 5,500 780 Climbing Atlanta TRACON
03:28PM 33.8833 -84.0000 90° East 109 125 6,600 720 Climbing Atlanta TRACON
03:29PM 33.8833 -83.9500 90° East 126 145 7,000 180 Climbing Atlanta TRACON
03:30PM 33.9000 -83.9000 68° East 161 185 7,000  Level Atlanta TRACON
03:31PM 33.9000 -83.8500 90° East 168 193 7,000  Level Atlanta TRACON
03:32PM 33.9000 -83.8000 90° East 169 194 7,000  Level Atlanta TRACON
03:33PM 33.9167 -83.7500 68° East 170 196 7,000 -60 Level Atlanta TRACON
03:34PM 33.9500 -83.7000 51° Northeast 169 194 6,900 -60 Descending Atlanta TRACON
03:35PM 33.9667 -83.6500 68° East 170 196 6,900  Level Atlanta TRACON
03:36PM 34.0000 -83.6000 51° Northeast 172 198 6,900  Level Atlanta TRACON
03:37PM 34.0167 -83.5500 68° East 171 197 6,900  Level Atlanta TRACON
03:38PM 34.0333 -83.5000 68° East 171 197 6,900  Level Atlanta TRACON
03:40PM 34.0833 -83.4000 59° Northeast 168 193 6,900  Level Atlanta TRACON
03:41PM 34.1167 -83.3500 51° Northeast 169 194 6,900 60 Level Atlanta TRACON
03:42PM 34.1406 -83.2908 64° Northeast 179 206 7,100  Climbing Atlanta Center
03:43PM 34.1611 -83.2456 61° Northeast 174 200 7,000  Descending Atlanta Center
03:44PM 34.1839 -83.2000 59° Northeast 159 183 7,100  Climbing Atlanta Center
03:45PM 34.2064 -83.1522 60° Northeast 159 183 7,000 -60 Descending Atlanta Center
03:46PM 34.2289 -83.1017 62° Northeast 165 190 7,000  Level Atlanta Center
03:47PM 34.2514 -83.0511 62° Northeast 165 190 7,000  Level Atlanta Center
03:48PM 34.2761 -83.0031 58° Northeast 165 190 7,000  Level Atlanta Center
03:49PM 34.2986 -82.9525 62° Northeast 165 190 7,000  Level Atlanta Center
03:50PM 34.3233 -82.9044 58° Northeast 165 190 7,000  Level Atlanta Center
03:51PM 34.3458 -82.8589 59° Northeast 165 190 7,000  Level Atlanta Center
03:52PM 34.3661 -82.8108 63° Northeast 165 190 7,000  Level Atlanta Center
03:53PM 34.3908 -82.7600 59° Northeast 165 190 7,000  Level Atlanta Center
03:54PM 34.4133 -82.7119 60° Northeast 165 190 7,000  Level Atlanta Center
03:55PM 34.4356 -82.6586 63° Northeast 165 190 7,000  Level Atlanta Center
03:56PM 34.4581 -82.6128 59° Northeast 165 190 7,000 -60 Level Atlanta Center
03:57PM 34.4825 -82.5619 60° Northeast 165 190 6,900 -120 Descending Atlanta Center
03:59PM 34.5114 -82.4989 61° Northeast  Level FlightAware Approximate
04:06PM 34.6687 -82.1543 61° Northeast  Level FlightAware Approximate
04:07PM 34.6911 -82.1050 61° Northeast  Level FlightAware Approximate
04:08PM 34.7135 -82.0556 61° Northeast  Level FlightAware Approximate
04:09PM 34.7358 -82.0063 61° Northeast  Level FlightAware Approximate
04:10PM 34.7581 -81.9569 61° Northeast  Level FlightAware Approximate
04:11PM 34.7805 -81.9074 61° Northeast  Level FlightAware Approximate
04:11PM 34.7222 -81.8478 61° Northeast 167 192 5,900  Level Atlanta Center
04:12PM 34.8027 -81.8579 61° Northeast  Level FlightAware Approximate
04:13PM 34.8250 -81.8085 61° Northeast  Level FlightAware Approximate
04:13PM 34.7667 -81.7708 55° Northeast 165 190 5,900  Level Atlanta Center
04:14PM 34.8473 -81.7589 61° Northeast  Level FlightAware Approximate
04:14PM 34.7908 -81.7219 59° Northeast 167 192 5,000  Level Atlanta Center
04:15PM 34.8695 -81.7094 61° Northeast  Level FlightAware Approximate
04:15PM 34.8169 -81.6731 57° Northeast 174 200 4,900  Level Atlanta Center
04:16PM 34.8917 -81.6598 61° Northeast  Level FlightAware Approximate
04:16PM 34.8475 -81.6242 53° Northeast 158 182 5,000  Level Atlanta Center
04:17PM 34.8675 -81.5908 54° Northeast 159 183 5,000  Level Atlanta Center
04:18PM 34.8897 -81.5444 60° Northeast 163 188 5,000 -600 Level Atlanta Center
04:19PM 34.9011 -81.4911 75° East 153 176 3,900 -540 Descending Atlanta Center
04:20PM 34.9081 -81.4325 82° East 158 182 3,900  Level Atlanta Center
04:21PM 34.9089 -81.3742 89° East 170 196 3,900  Level Atlanta Center
04:23PM 34.9192 -81.2650 83° East 162 186 3,900  Level Atlanta Center
04:24PM 34.9200 -81.2117 89° East 160 184 3,900  Level Atlanta Center
04:25PM 34.9083 -81.1564 104° East 163 188 3,900  Level Atlanta Center
04:26PM 34.9006 -81.0958 99° East 164 189 3,900  Level Atlanta Center
04:27PM 34.8886 -81.0381 104° East 164 189 3,900 -60 Level Atlanta Center
04:28PM 34.8833 -80.9850 97° East 164 189 3,800  Descending Atlanta Center
04:29PM 34.8942 -80.9239 78° East 163 188 3,900  Climbing Atlanta Center
04:30PM 34.9011 -80.8706 81° East 165 190 3,900  Level Atlanta Center
04:31PM 34.9100 -80.8094 80° East 165 190 3,900  Level Atlanta Center
04:32PM 34.9150 -80.7636 82° East 164 189 3,900  Level Atlanta Center
04:33PM 34.9219 -80.7075 81° East 164 189 3,900  Level Atlanta Center
04:34PM 34.9436 -80.6636 59° Northeast 169 194 3,900  Level Atlanta Center
04:35PM 34.9847 -80.6342 30° Northeast 165 190 3,900  Level Atlanta Center
04:36PM 35.0233 -80.6047 32° Northeast 165 190 3,900 -60 Level Atlanta Center
04:37PM 35.0603 -80.5803 28° Northeast 168 193 3,800  Descending Atlanta Center
04:38PM 35.1044 -80.5886 351° North 165 190 3,900  Climbing Atlanta Center
04:39PM 35.1589 -80.6017 349° North 163 188 3,900  Level Atlanta Center
04:40PM 35.1892 -80.6333 319° Northwest 164 189 3,900  Level Atlanta Center
04:41PM 35.2256 -80.6650 325° Northwest 163 188 3,900  Level Atlanta Center
04:42PM 35.2642 -80.7067 319° Northwest 163 188 3,900  Level Atlanta Center
04:43PM 35.2967 -80.7483 314° West 163 188 3,900 -540 Level Atlanta Center
04:44PM 35.3125 -80.8014 290° West 182 209 2,900 -600 Descending Atlanta Center
04:45PM 35.2906 -80.8428 237° Southwest 171 197 2,800 -660 Descending Atlanta Center
04:46PM 35.2483 -80.8978 227° Southwest 177 204 1,600 -1,020 Descending Atlanta Center
04:48PM 35.2000 -80.9333 243° Southwest  Level FlightAware Approximate
04:55PM 35.2137 -80.9491 243° Southwest  Level Estimated
04:56PM 35.2137 -80.9491 243° Southwest  Level Estimated